Terminal Aerodrome Forecast
Issued by NWS Paducah, KY

Home | Current Version | Previous Version | Text Only | Print | Product List | Glossary On
Versions: 1 2 3 4 5 6 7 8 9 10 11 12 13 14 15
618
FTUS43 KPAH 281517 AAA
TAFEVV
TAF AMD
KEVV 281517Z 2815/2912 18011G18KT P6SM SCT050 BKN150
     FM281800 18009G17KT P6SM VCTS BKN050CB
     FM290000 17005KT P6SM SCT050=

USA.gov is the U.S. government's official web portal to all federal, state and local government web resources and services.